CDT,Max TemperatureF,Mean TemperatureF,Min TemperatureF,Max Dew PointF,MeanDew PointF,Min DewpointF,Max Humidity, Mean Humidity, Min Humidity, Max Sea Level PressureIn, Mean Sea Level PressureIn, Min Sea Level PressureIn, Max VisibilityMiles, Mean VisibilityMiles, Min VisibilityMiles, Max Wind SpeedMPH, Mean Wind SpeedMPH, Max Gust SpeedMPH,PrecipitationIn, CloudCover, Events, WindDirDegrees
2013-10-1,80,68,55,59,56,54,94,71,45,29.98,29.91,29.83,10,10,1,13,9,16,0.00,0,,233
2013-10-2,84,70,57,66,61,55,100,75,48,30.02,29.95,29.88,10,9,3,20,7,25,0.00,1,,152
2013-10-3,82,72,62,68,64,59,100,82,51,29.87,29.81,29.74,10,10,5,36,10,46,0.01,3,Rain,182
2013-10-4,82,72,62,70,65,55,100,82,60,29.88,29.81,29.73,10,9,1,22,11,29,0.01,5,Rain,128
2013-10-5,64,53,42,54,37,32,77,59,44,29.96,29.89,29.80,10,10,9,25,14,33,0.00,4,Rain,252
2013-10-6,48,44,41,46,42,34,100,90,66,29.95,29.82,29.75,10,8,1,23,13,31,0.05,7,Rain,285
2013-10-7,71,55,39,46,41,37,100,65,29,30.08,30.03,29.95,10,10,8,17,9,23,0.00,0,,256
2013-10-8,75,60,46,48,44,41,87,59,31,30.08,30.04,29.98,10,10,10,28,13,37,0.00,0,,182
2013-10-9,75,62,48,50,48,45,94,65,36,30.10,30.06,30.02,10,10,10,16,11,24,0.00,0,,161
2013-10-10,77,62,48,54,49,45,93,65,36,30.07,30.00,29.89,10,10,10,17,10,28,0.00,0,,159
2013-10-11,71,63,55,63,57,50,94,81,68,29.89,29.82,29.74,10,10,10,23,13,33,0.00,3,,166
2013-10-12,66,54,42,48,38,32,93,60,30,30.28,30.09,29.88,10,10,10,20,10,24,0.00,1,,295
2013-10-13,66,52,39,37,33,30,75,52,28,30.43,30.36,30.29,10,10,10,12,7,16,0.00,0,,60
2013-10-14,68,54,41,55,39,32,94,59,32,30.33,30.10,29.81,10,10,2,26,13,37,0.15,3,Rain,131
2013-10-15,59,52,44,57,44,39,94,78,66,30.01,29.91,29.78,10,10,2,23,17,31,0.06,8,,263
2013-10-16,50,44,37,43,40,36,93,83,66,30.05,30.01,29.97,10,10,8,17,12,22,0.00,6,,284
2013-10-17,60,48,35,41,37,34,100,73,36,29.99,29.91,29.86,10,9,2,22,8,29,0.00,1,,248
2013-10-18,46,39,32,37,32,28,100,75,50,30.10,30.04,29.99,10,10,10,20,11,31,0.00,1,,287
2013-10-19,60,45,30,36,32,28,100,70,33,29.99,29.89,29.81,10,9,2,25,10,33,0.00,3,,244
2013-10-20,62,50,39,41,39,32,93,68,45,29.95,29.80,29.74,10,10,10,18,7,23,0.00,4,,251
2013-10-21,48,42,35,36,32,27,93,68,46,30.09,30.02,29.96,10,10,8,18,9,25,0.00,6,,298
2013-10-22,44,38,33,41,35,30,100,84,66,30.09,29.95,29.84,10,10,3,16,7,21,0.01,7,Rain,332
2013-10-23,37,32,26,37,32,27,100,93,87,30.16,30.10,30.07,10,8,2,10,5,,0.07,6,Rain-Snow,287
2013-10-24,44,36,28,36,28,23,93,72,46,30.39,30.30,30.16,10,10,10,20,9,26,0.00,3,,311
2013-10-25,55,40,26,30,26,21,80,59,35,30.41,30.28,30.07,10,10,10,22,9,29,0.00,1,,222
2013-10-26,50,42,33,34,29,25,93,61,37,30.17,30.11,29.99,10,10,6,23,11,30,0.00,0,,306
2013-10-27,62,43,24,32,29,23,93,63,31,30.14,29.99,29.87,10,10,4,20,7,25,0.00,0,,205
2013-10-28,57,46,35,37,34,30,93,67,44,30.24,30.14,29.98,10,10,9,16,9,20,0.00,0,,58
2013-10-29,55,48,41,54,46,37,100,90,81,30.21,30.06,29.98,10,6,0,17,13,23,0.00,8,Rain,97
2013-10-30,60,55,50,61,56,50,100,100,94,29.99,29.85,29.69,10,4,0,18,9,26,0.54,8,Fog-Rain,112
2013-10-31,51,46,41,50,42,37,100,91,67,29.70,29.59,29.49,10,8,1,16,11,20,0.00,5,Rain,292